sensor_id;sensor_type;location;lat;lon;timestamp;pressure;altitude;pressure_sealevel;temperature;humidity
79799;BME280;69283;48.024;11.090;2023-12-14T00:01:35;94246.50;;;5.78;82.88
79799;BME280;69283;48.024;11.090;2023-12-14T00:04:01;94250.28;;;5.77;82.42
79799;BME280;69283;48.024;11.090;2023-12-14T00:06:27;94252.53;;;5.75;82.78
79799;BME280;69283;48.024;11.090;2023-12-14T00:08:53;94244.22;;;5.68;83.88
79799;BME280;69283;48.024;11.090;2023-12-14T00:11:18;94249.38;;;5.73;83.82
79799;BME280;69283;48.024;11.090;2023-12-14T00:13:43;94257.91;;;5.75;83.53
79799;BME280;69283;48.024;11.090;2023-12-14T00:16:08;94253.41;;;5.67;83.59
79799;BME280;69283;48.024;11.090;2023-12-14T00:18:34;94268.44;;;5.80;83.90
79799;BME280;69283;48.024;11.090;2023-12-14T00:20:59;94260.59;;;5.75;83.93
79799;BME280;69283;48.024;11.090;2023-12-14T00:23:24;94270.22;;;5.76;83.54
79799;BME280;69283;48.024;11.090;2023-12-14T00:25:50;94266.97;;;5.70;84.18
79799;BME280;69283;48.024;11.090;2023-12-14T00:28:15;94279.41;;;5.75;84.17
79799;BME280;69283;48.024;11.090;2023-12-14T00:30:41;94273.13;;;5.71;84.15
79799;BME280;69283;48.024;11.090;2023-12-14T00:33:06;94282.09;;;5.75;84.29
79799;BME280;69283;48.024;11.090;2023-12-14T00:35:31;94265.53;;;5.73;83.74
79799;BME280;69283;48.024;11.090;2023-12-14T00:37:57;94270.00;;;5.69;83.56
79799;BME280;69283;48.024;11.090;2023-12-14T00:40:22;94287.94;;;5.77;84.25
79799;BME280;69283;48.024;11.090;2023-12-14T00:42:47;94283.88;;;5.71;83.67
79799;BME280;69283;48.024;11.090;2023-12-14T00:45:13;94292.63;;;5.80;83.08
79799;BME280;69283;48.024;11.090;2023-12-14T00:47:38;94293.63;;;5.75;83.50
79799;BME280;69283;48.024;11.090;2023-12-14T00:50:04;94295.53;;;5.75;83.78
79799;BME280;69283;48.024;11.090;2023-12-14T00:52:29;94301.69;;;5.75;83.69
79799;BME280;69283;48.024;11.090;2023-12-14T00:54:55;94308.66;;;5.76;83.20
79799;BME280;69283;48.024;11.090;2023-12-14T00:57:20;94307.88;;;5.76;83.30
79799;BME280;69283;48.024;11.090;2023-12-14T00:59:45;94317.38;;;5.73;83.23
79799;BME280;69283;48.024;11.090;2023-12-14T01:02:11;94313.78;;;5.69;83.02
79799;BME280;69283;48.024;11.090;2023-12-14T01:04:36;94325.44;;;5.73;83.56
79799;BME280;69283;48.024;11.090;2023-12-14T01:07:02;94323.22;;;5.75;83.89
79799;BME280;69283;48.024;11.090;2023-12-14T01:09:27;94334.63;;;5.72;82.78
79799;BME280;69283;48.024;11.090;2023-12-14T01:11:53;94331.47;;;5.70;83.01
79799;BME280;69283;48.024;11.090;2023-12-14T01:14:18;94346.75;;;5.78;82.73
79799;BME280;69283;48.024;11.090;2023-12-14T01:16:43;94332.72;;;5.73;82.45
79799;BME280;69283;48.024;11.090;2023-12-14T01:19:08;94350.88;;;5.76;82.23
79799;BME280;69283;48.024;11.090;2023-12-14T01:21:34;94333.06;;;5.71;82.97
79799;BME280;69283;48.024;11.090;2023-12-14T01:23:59;94349.63;;;5.73;82.97
79799;BME280;69283;48.024;11.090;2023-12-14T01:26:26;94362.75;;;5.75;82.79
79799;BME280;69283;48.024;11.090;2023-12-14T01:28:51;94352.66;;;5.72;82.25
79799;BME280;69283;48.024;11.090;2023-12-14T01:31:16;94371.09;;;5.82;82.66
79799;BME280;69283;48.024;11.090;2023-12-14T01:33:42;94368.91;;;5.75;83.02
79799;BME280;69283;48.024;11.090;2023-12-14T01:36:07;94376.84;;;5.72;83.20
79799;BME280;69283;48.024;11.090;2023-12-14T01:38:33;94377.63;;;5.72;83.06
79799;BME280;69283;48.024;11.090;2023-12-14T01:40:58;94374.63;;;5.74;83.01
79799;BME280;69283;48.024;11.090;2023-12-14T01:43:24;94380.66;;;5.71;82.94
79799;BME280;69283;48.024;11.090;2023-12-14T01:45:49;94383.09;;;5.64;84.28
79799;BME280;69283;48.024;11.090;2023-12-14T01:48:14;94381.66;;;5.66;83.92
79799;BME280;69283;48.024;11.090;2023-12-14T01:50:40;94387.81;;;5.67;83.48
79799;BME280;69283;48.024;11.090;2023-12-14T01:53:05;94390.03;;;5.65;83.93
79799;BME280;69283;48.024;11.090;2023-12-14T01:55:30;94394.97;;;5.63;84.29
79799;BME280;69283;48.024;11.090;2023-12-14T01:57:56;94421.69;;;5.59;84.22
79799;BME280;69283;48.024;11.090;2023-12-14T02:00:37;94408.06;;;5.64;84.13
79799;BME280;69283;48.024;11.090;2023-12-14T02:03:04;94411.66;;;5.68;84.13
79799;BME280;69283;48.024;11.090;2023-12-14T02:05:29;94423.88;;;5.66;83.38
79799;BME280;69283;48.024;11.090;2023-12-14T02:07:55;94427.00;;;5.68;83.79
79799;BME280;69283;48.024;11.090;2023-12-14T02:10:20;94421.22;;;5.57;83.63
79799;BME280;69283;48.024;11.090;2023-12-14T02:12:45;94414.13;;;5.53;83.68
79799;BME280;69283;48.024;11.090;2023-12-14T02:15:11;94433.22;;;5.60;83.22
79799;BME280;69283;48.024;11.090;2023-12-14T02:17:36;94437.97;;;5.63;84.25
79799;BME280;69283;48.024;11.090;2023-12-14T02:20:02;94425.69;;;5.53;83.79
79799;BME280;69283;48.024;11.090;2023-12-14T02:22:27;94449.22;;;5.56;84.19
79799;BME280;69283;48.024;11.090;2023-12-14T02:24:52;94438.75;;;5.63;83.50
79799;BME280;69283;48.024;11.090;2023-12-14T02:27:18;94454.25;;;5.58;83.63
79799;BME280;69283;48.024;11.090;2023-12-14T02:29:43;94461.41;;;5.54;84.23
79799;BME280;69283;48.024;11.090;2023-12-14T02:32:08;94447.81;;;5.50;83.88
79799;BME280;69283;48.024;11.090;2023-12-14T02:34:33;94460.88;;;5.60;83.66
79799;BME280;69283;48.024;11.090;2023-12-14T02:36:59;94465.47;;;5.60;83.84
79799;BME280;69283;48.024;11.090;2023-12-14T02:39:24;94466.44;;;5.55;83.71
79799;BME280;69283;48.024;11.090;2023-12-14T02:41:49;94469.78;;;5.52;84.00
79799;BME280;69283;48.024;11.090;2023-12-14T02:44:14;94467.44;;;5.50;83.48
79799;BME280;69283;48.024;11.090;2023-12-14T02:46:40;94461.63;;;5.40;83.40
79799;BME280;69283;48.024;11.090;2023-12-14T02:49:05;94471.28;;;5.41;81.98
79799;BME280;69283;48.024;11.090;2023-12-14T02:51:30;94472.88;;;5.33;81.76
79799;BME280;69283;48.024;11.090;2023-12-14T02:53:55;94483.34;;;5.26;82.03
79799;BME280;69283;48.024;11.090;2023-12-14T02:56:22;94482.25;;;5.18;82.05
79799;BME280;69283;48.024;11.090;2023-12-14T02:58:48;94491.28;;;5.14;82.10
79799;BME280;69283;48.024;11.090;2023-12-14T03:01:18;94497.47;;;5.14;82.26
79799;BME280;69283;48.024;11.090;2023-12-14T03:03:44;94503.94;;;5.22;82.57
79799;BME280;69283;48.024;11.090;2023-12-14T03:06:09;94502.81;;;5.14;82.30
79799;BME280;69283;48.024;11.090;2023-12-14T03:08:34;94513.25;;;5.16;81.96
79799;BME280;69283;48.024;11.090;2023-12-14T03:10:59;94511.06;;;5.09;82.08
79799;BME280;69283;48.024;11.090;2023-12-14T03:13:25;94517.69;;;5.12;81.87
79799;BME280;69283;48.024;11.090;2023-12-14T03:15:50;94519.31;;;5.04;81.01
79799;BME280;69283;48.024;11.090;2023-12-14T03:18:15;94518.66;;;5.07;80.59
79799;BME280;69283;48.024;11.090;2023-12-14T03:20:41;94518.53;;;5.04;81.32
79799;BME280;69283;48.024;11.090;2023-12-14T03:23:06;94525.47;;;5.05;81.76
79799;BME280;69283;48.024;11.090;2023-12-14T03:25:31;94530.84;;;5.05;81.75
79799;BME280;69283;48.024;11.090;2023-12-14T03:27:56;94529.41;;;5.07;80.90
79799;BME280;69283;48.024;11.090;2023-12-14T03:30:22;94542.03;;;5.07;81.83
79799;BME280;69283;48.024;11.090;2023-12-14T03:32:47;94553.56;;;5.07;82.09
79799;BME280;69283;48.024;11.090;2023-12-14T03:35:12;94544.41;;;5.08;82.00
79799;BME280;69283;48.024;11.090;2023-12-14T03:37:37;94541.72;;;5.08;81.38
79799;BME280;69283;48.024;11.090;2023-12-14T03:40:03;94553.25;;;5.09;81.31
79799;BME280;69283;48.024;11.090;2023-12-14T03:42:28;94549.16;;;5.03;82.50
79799;BME280;69283;48.024;11.090;2023-12-14T03:44:54;94557.03;;;5.08;82.70
79799;BME280;69283;48.024;11.090;2023-12-14T03:47:19;94538.09;;;5.04;81.73
79799;BME280;69283;48.024;11.090;2023-12-14T03:49:44;94572.00;;;5.17;82.22
79799;BME280;69283;48.024;11.090;2023-12-14T03:52:10;94564.13;;;5.12;82.28
79799;BME280;69283;48.024;11.090;2023-12-14T03:54:35;94564.81;;;5.01;82.52
79799;BME280;69283;48.024;11.090;2023-12-14T03:57:00;94562.91;;;5.01;82.47
79799;BME280;69283;48.024;11.090;2023-12-14T03:59:25;94564.16;;;5.04;82.73
79799;BME280;69283;48.024;11.090;2023-12-14T04:01:51;94578.53;;;5.08;82.28
79799;BME280;69283;48.024;11.090;2023-12-14T04:04:16;94578.06;;;5.06;82.37
79799;BME280;69283;48.024;11.090;2023-12-14T04:06:41;94571.72;;;5.10;82.92
79799;BME280;69283;48.024;11.090;2023-12-14T04:09:06;94580.91;;;5.09;82.58
79799;BME280;69283;48.024;11.090;2023-12-14T04:11:32;94586.25;;;5.09;82.76
79799;BME280;69283;48.024;11.090;2023-12-14T04:13:57;94582.66;;;5.05;83.71
79799;BME280;69283;48.024;11.090;2023-12-14T04:16:22;94601.41;;;5.14;83.59
79799;BME280;69283;48.024;11.090;2023-12-14T04:18:48;94586.41;;;5.13;83.02
79799;BME280;69283;48.024;11.090;2023-12-14T04:21:13;94603.63;;;5.12;83.48
79799;BME280;69283;48.024;11.090;2023-12-14T04:23:39;94589.78;;;5.01;83.02
79799;BME280;69283;48.024;11.090;2023-12-14T04:26:04;94609.66;;;5.09;83.48
79799;BME280;69283;48.024;11.090;2023-12-14T04:28:29;94603.03;;;5.06;83.39
79799;BME280;69283;48.024;11.090;2023-12-14T04:30:55;94613.25;;;5.13;83.94
79799;BME280;69283;48.024;11.090;2023-12-14T04:33:20;94628.28;;;5.14;83.84
79799;BME280;69283;48.024;11.090;2023-12-14T04:35:45;94623.53;;;5.11;83.41
79799;BME280;69283;48.024;11.090;2023-12-14T04:38:11;94621.97;;;5.10;84.19
79799;BME280;69283;48.024;11.090;2023-12-14T04:40:36;94624.31;;;5.11;83.70
79799;BME280;69283;48.024;11.090;2023-12-14T04:43:01;94637.13;;;5.14;83.83
79799;BME280;69283;48.024;11.090;2023-12-14T04:45:27;94638.22;;;5.22;83.14
79799;BME280;69283;48.024;11.090;2023-12-14T04:47:52;94645.00;;;5.19;83.57
79799;BME280;69283;48.024;11.090;2023-12-14T04:50:18;94647.53;;;5.16;84.47
79799;BME280;69283;48.024;11.090;2023-12-14T04:52:43;94650.84;;;5.30;83.10
79799;BME280;69283;48.024;11.090;2023-12-14T04:55:08;94651.81;;;5.17;84.05
79799;BME280;69283;48.024;11.090;2023-12-14T04:57:34;94654.81;;;5.24;83.37
79799;BME280;69283;48.024;11.090;2023-12-14T04:59:59;94649.47;;;5.07;84.03
79799;BME280;69283;48.024;11.090;2023-12-14T05:02:24;94665.56;;;5.07;84.33
79799;BME280;69283;48.024;11.090;2023-12-14T05:04:50;94662.25;;;5.10;84.40
79799;BME280;69283;48.024;11.090;2023-12-14T05:07:15;94667.91;;;5.17;83.83
79799;BME280;69283;48.024;11.090;2023-12-14T05:09:40;94680.72;;;5.20;84.17
79799;BME280;69283;48.024;11.090;2023-12-14T05:12:06;94667.47;;;5.06;84.73
79799;BME280;69283;48.024;11.090;2023-12-14T05:14:31;94678.03;;;5.11;84.27
79799;BME280;69283;48.024;11.090;2023-12-14T05:16:56;94675.69;;;5.10;83.87
79799;BME280;69283;48.024;11.090;2023-12-14T05:19:22;94686.09;;;5.11;84.43
79799;BME280;69283;48.024;11.090;2023-12-14T05:21:47;94683.72;;;5.10;83.20
79799;BME280;69283;48.024;11.090;2023-12-14T05:24:13;94686.91;;;5.03;83.97
79799;BME280;69283;48.024;11.090;2023-12-14T05:26:38;94684.22;;;5.03;84.00
79799;BME280;69283;48.024;11.090;2023-12-14T05:29:03;94704.59;;;5.13;83.57
79799;BME280;69283;48.024;11.090;2023-12-14T05:31:28;94701.75;;;5.09;83.75
79799;BME280;69283;48.024;11.090;2023-12-14T05:33:54;94708.88;;;5.05;84.21
79799;BME280;69283;48.024;11.090;2023-12-14T05:36:19;94703.03;;;5.03;83.54
79799;BME280;69283;48.024;11.090;2023-12-14T05:38:44;94715.31;;;5.13;83.10
79799;BME280;69283;48.024;11.090;2023-12-14T05:41:09;94721.66;;;5.08;83.99
79799;BME280;69283;48.024;11.090;2023-12-14T05:43:35;94725.94;;;5.01;84.33
79799;BME280;69283;48.024;11.090;2023-12-14T05:46:01;94720.84;;;4.99;84.58
79799;BME280;69283;48.024;11.090;2023-12-14T05:48:27;94738.38;;;5.14;84.31
79799;BME280;69283;48.024;11.090;2023-12-14T05:50:53;94745.34;;;5.15;83.83
79799;BME280;69283;48.024;11.090;2023-12-14T05:53:18;94747.38;;;5.18;83.79
79799;BME280;69283;48.024;11.090;2023-12-14T05:55:44;94753.09;;;5.08;84.33
79799;BME280;69283;48.024;11.090;2023-12-14T05:58:11;94740.16;;;5.01;84.91
79799;BME280;69283;48.024;11.090;2023-12-14T06:00:37;94765.88;;;5.11;84.57
79799;BME280;69283;48.024;11.090;2023-12-14T06:03:26;94774.72;;;5.20;83.91
79799;BME280;69283;48.024;11.090;2023-12-14T06:05:51;94777.91;;;5.22;84.35
79799;BME280;69283;48.024;11.090;2023-12-14T06:08:16;94739.16;;;4.97;83.88
79799;BME280;69283;48.024;11.090;2023-12-14T06:10:47;94751.81;;;5.05;83.90
79799;BME280;69283;48.024;11.090;2023-12-14T06:13:12;94756.25;;;5.10;84.50
79799;BME280;69283;48.024;11.090;2023-12-14T06:15:38;94754.50;;;5.05;84.73
79799;BME280;69283;48.024;11.090;2023-12-14T06:18:03;94761.94;;;5.08;84.98
79799;BME280;69283;48.024;11.090;2023-12-14T06:20:30;94795.75;;;5.18;84.37
79799;BME280;69283;48.024;11.090;2023-12-14T06:22:55;94766.53;;;5.08;84.11
79799;BME280;69283;48.024;11.090;2023-12-14T06:25:23;94794.97;;;5.26;84.05
79799;BME280;69283;48.024;11.090;2023-12-14T06:27:48;94795.13;;;5.21;84.59
79799;BME280;69283;48.024;11.090;2023-12-14T06:30:17;94792.75;;;5.11;84.39
79799;BME280;69283;48.024;11.090;2023-12-14T06:32:42;94793.38;;;5.08;84.17
79799;BME280;69283;48.024;11.090;2023-12-14T06:35:07;94776.63;;;5.02;84.31
79799;BME280;69283;48.024;11.090;2023-12-14T06:37:33;94782.31;;;5.09;84.11
79799;BME280;69283;48.024;11.090;2023-12-14T06:39:58;94819.78;;;5.32;83.89
79799;BME280;69283;48.024;11.090;2023-12-14T06:42:27;94805.53;;;5.14;84.44
79799;BME280;69283;48.024;11.090;2023-12-14T06:44:53;94792.75;;;5.11;84.20
79799;BME280;69283;48.024;11.090;2023-12-14T06:47:18;94797.16;;;5.07;84.19
79799;BME280;69283;48.024;11.090;2023-12-14T06:49:44;94800.97;;;5.06;84.37
79799;BME280;69283;48.024;11.090;2023-12-14T06:52:09;94823.38;;;5.10;84.31
79799;BME280;69283;48.024;11.090;2023-12-14T06:54:35;94824.81;;;5.16;83.92
79799;BME280;69283;48.024;11.090;2023-12-14T06:57:00;94820.19;;;4.99;84.17
79799;BME280;69283;48.024;11.090;2023-12-14T06:59:28;94850.72;;;5.12;84.85
79799;BME280;69283;48.024;11.090;2023-12-14T07:01:53;94867.66;;;5.21;84.66
79799;BME280;69283;48.024;11.090;2023-12-14T07:04:19;94841.69;;;4.99;84.86
79799;BME280;69283;48.024;11.090;2023-12-14T07:06:50;94863.69;;;5.18;83.86
79799;BME280;69283;48.024;11.090;2023-12-14T07:09:16;94879.34;;;5.25;83.91
79799;BME280;69283;48.024;11.090;2023-12-14T07:11:41;94856.25;;;5.07;84.23
79799;BME280;69283;48.024;11.090;2023-12-14T07:14:07;94869.22;;;5.13;84.00
79799;BME280;69283;48.024;11.090;2023-12-14T07:16:32;94888.53;;;5.24;84.34
79799;BME280;69283;48.024;11.090;2023-12-14T07:18:57;94870.94;;;5.09;84.06
79799;BME280;69283;48.024;11.090;2023-12-14T07:21:23;94854.97;;;5.04;83.38
79799;BME280;69283;48.024;11.090;2023-12-14T07:23:48;94867.00;;;5.07;83.65
79799;BME280;69283;48.024;11.090;2023-12-14T07:26:13;94877.09;;;5.10;83.48
79799;BME280;69283;48.024;11.090;2023-12-14T07:28:39;94901.31;;;5.27;83.42
79799;BME280;69283;48.024;11.090;2023-12-14T07:31:04;94862.88;;;5.01;83.07
79799;BME280;69283;48.024;11.090;2023-12-14T07:33:30;94885.63;;;5.12;83.50
79799;BME280;69283;48.024;11.090;2023-12-14T07:35:55;94876.00;;;5.02;83.62
79799;BME280;69283;48.024;11.090;2023-12-14T07:38:20;94881.06;;;5.04;83.64
79799;BME280;69283;48.024;11.090;2023-12-14T07:40:46;94902.06;;;5.10;83.44
79799;BME280;69283;48.024;11.090;2023-12-14T07:43:12;94906.66;;;5.10;83.96
79799;BME280;69283;48.024;11.090;2023-12-14T07:45:37;94887.53;;;5.03;83.31
79799;BME280;69283;48.024;11.090;2023-12-14T07:48:03;94912.50;;;5.12;83.43
79799;BME280;69283;48.024;11.090;2023-12-14T07:50:29;94930.72;;;5.24;83.55
79799;BME280;69283;48.024;11.090;2023-12-14T07:52:54;94908.84;;;5.08;83.42
79799;BME280;69283;48.024;11.090;2023-12-14T07:55:22;94924.81;;;5.13;83.79
79799;BME280;69283;48.024;11.090;2023-12-14T07:57:48;94926.41;;;5.14;83.75
79799;BME280;69283;48.024;11.090;2023-12-14T08:00:14;94950.44;;;5.19;83.46
79799;BME280;69283;48.024;11.090;2023-12-14T08:02:40;94940.66;;;5.23;83.28
79799;BME280;69283;48.024;11.090;2023-12-14T08:05:07;94936.22;;;5.18;83.33
79799;BME280;69283;48.024;11.090;2023-12-14T08:07:32;94927.50;;;5.04;83.12
79799;BME280;69283;48.024;11.090;2023-12-14T08:09:59;94914.97;;;5.00;83.12
79799;BME280;69283;48.024;11.090;2023-12-14T08:12:25;94940.94;;;5.13;82.70
79799;BME280;69283;48.024;11.090;2023-12-14T08:14:51;94955.69;;;5.24;83.06
79799;BME280;69283;48.024;11.090;2023-12-14T08:17:16;94963.91;;;5.28;83.55
79799;BME280;69283;48.024;11.090;2023-12-14T08:19:42;94942.19;;;5.07;83.52
79799;BME280;69283;48.024;11.090;2023-12-14T08:22:08;94957.84;;;5.13;83.90
79799;BME280;69283;48.024;11.090;2023-12-14T08:24:36;94977.34;;;5.28;84.12
79799;BME280;69283;48.024;11.090;2023-12-14T08:27:01;94982.41;;;5.29;83.58
79799;BME280;69283;48.024;11.090;2023-12-14T08:29:26;94965.59;;;5.15;83.08
79799;BME280;69283;48.024;11.090;2023-12-14T08:31:52;94995.06;;;5.37;82.71
79799;BME280;69283;48.024;11.090;2023-12-14T08:34:17;94989.03;;;5.23;83.68
79799;BME280;69283;48.024;11.090;2023-12-14T08:36:42;94993.78;;;5.26;83.25
79799;BME280;69283;48.024;11.090;2023-12-14T08:39:07;94992.31;;;5.20;83.37
79799;BME280;69283;48.024;11.090;2023-12-14T08:41:33;95014.97;;;5.36;83.48
79799;BME280;69283;48.024;11.090;2023-12-14T08:43:58;95018.28;;;5.33;83.57
79799;BME280;69283;48.024;11.090;2023-12-14T08:46:23;95015.28;;;5.26;83.29
79799;BME280;69283;48.024;11.090;2023-12-14T08:48:49;95008.16;;;5.22;82.77
79799;BME280;69283;48.024;11.090;2023-12-14T08:51:14;94991.81;;;5.18;83.12
79799;BME280;69283;48.024;11.090;2023-12-14T08:53:39;95002.47;;;5.23;82.46
79799;BME280;69283;48.024;11.090;2023-12-14T08:56:05;94998.78;;;5.19;82.35
79799;BME280;69283;48.024;11.090;2023-12-14T08:58:31;95033.66;;;5.41;82.67
79799;BME280;69283;48.024;11.090;2023-12-14T09:00:56;95031.72;;;5.33;82.88
79799;BME280;69283;48.024;11.090;2023-12-14T09:03:21;95014.13;;;5.18;83.01
79799;BME280;69283;48.024;11.090;2023-12-14T09:05:47;95037.56;;;5.27;82.95
79799;BME280;69283;48.024;11.090;2023-12-14T09:08:12;95039.00;;;5.33;82.60
79799;BME280;69283;48.024;11.090;2023-12-14T09:10:38;95041.84;;;5.36;82.89
79799;BME280;69283;48.024;11.090;2023-12-14T09:13:04;95021.75;;;5.25;82.72
79799;BME280;69283;48.024;11.090;2023-12-14T09:15:33;95042.00;;;5.31;82.88
79799;BME280;69283;48.024;11.090;2023-12-14T09:17:58;95054.19;;;5.37;83.23
79799;BME280;69283;48.024;11.090;2023-12-14T09:20:24;95074.94;;;5.45;83.34
79799;BME280;69283;48.024;11.090;2023-12-14T09:22:50;95068.84;;;5.31;83.02
79799;BME280;69283;48.024;11.090;2023-12-14T09:25:15;95075.66;;;5.37;82.97
79799;BME280;69283;48.024;11.090;2023-12-14T09:27:43;95095.19;;;5.52;83.86
79799;BME280;69283;48.024;11.090;2023-12-14T09:30:09;95075.06;;;5.40;83.45
79799;BME280;69283;48.024;11.090;2023-12-14T09:32:35;95075.06;;;5.40;83.79
79799;BME280;69283;48.024;11.090;2023-12-14T09:35:01;95089.19;;;5.55;83.63
79799;BME280;69283;48.024;11.090;2023-12-14T09:37:26;95092.50;;;5.52;83.19
79799;BME280;69283;48.024;11.090;2023-12-14T09:39:51;95110.75;;;5.63;82.96
79799;BME280;69283;48.024;11.090;2023-12-14T09:42:18;95088.53;;;5.49;83.57
79799;BME280;69283;48.024;11.090;2023-12-14T09:44:47;95100.88;;;5.50;83.99
79799;BME280;69283;48.024;11.090;2023-12-14T09:47:13;95101.97;;;5.49;84.18
79799;BME280;69283;48.024;11.090;2023-12-14T09:49:39;95107.53;;;5.53;83.91
79799;BME280;69283;48.024;11.090;2023-12-14T09:52:08;95121.81;;;5.62;83.68
79799;BME280;69283;48.024;11.090;2023-12-14T09:54:33;95127.66;;;5.64;83.66
79799;BME280;69283;48.024;11.090;2023-12-14T09:56:59;95110.84;;;5.49;83.87
79799;BME280;69283;48.024;11.090;2023-12-14T09:59:24;95114.63;;;5.48;84.63
79799;BME280;69283;48.024;11.090;2023-12-14T10:01:49;95100.34;;;5.39;84.80
79799;BME280;69283;48.024;11.090;2023-12-14T10:04:18;95108.13;;;5.41;84.69
79799;BME280;69283;48.024;11.090;2023-12-14T10:06:46;95133.16;;;5.59;84.77
79799;BME280;69283;48.024;11.090;2023-12-14T10:09:12;95136.63;;;5.59;85.59
79799;BME280;69283;48.024;11.090;2023-12-14T10:11:43;95138.06;;;5.57;86.04
79799;BME280;69283;48.024;11.090;2023-12-14T10:14:19;95137.44;;;5.60;85.93
79799;BME280;69283;48.024;11.090;2023-12-14T10:16:47;95133.34;;;5.62;86.42
79799;BME280;69283;48.024;11.090;2023-12-14T10:19:12;95138.72;;;5.62;85.34
79799;BME280;69283;48.024;11.090;2023-12-14T10:21:37;95144.13;;;5.71;85.47
79799;BME280;69283;48.024;11.090;2023-12-14T10:24:03;95133.53;;;5.66;85.17
79799;BME280;69283;48.024;11.090;2023-12-14T10:26:28;95126.09;;;5.63;85.44
79799;BME280;69283;48.024;11.090;2023-12-14T10:28:53;95145.25;;;5.78;85.03
79799;BME280;69283;48.024;11.090;2023-12-14T10:31:19;95131.78;;;5.70;85.34
79799;BME280;69283;48.024;11.090;2023-12-14T10:33:47;95155.72;;;5.80;84.79
79799;BME280;69283;48.024;11.090;2023-12-14T10:36:13;95145.63;;;5.86;85.14
79799;BME280;69283;48.024;11.090;2023-12-14T10:38:40;95157.97;;;5.87;85.21
79799;BME280;69283;48.024;11.090;2023-12-14T10:41:08;95155.59;;;5.85;85.56
79799;BME280;69283;48.024;11.090;2023-12-14T10:43:36;95149.59;;;5.88;85.38
79799;BME280;69283;48.024;11.090;2023-12-14T10:46:04;95164.56;;;5.80;85.82
79799;BME280;69283;48.024;11.090;2023-12-14T10:48:30;95164.41;;;5.77;85.02
79799;BME280;69283;48.024;11.090;2023-12-14T10:50:59;95170.41;;;5.74;84.07
79799;BME280;69283;48.024;11.090;2023-12-14T10:53:26;95161.06;;;5.71;83.96
79799;BME280;69283;48.024;11.090;2023-12-14T10:55:52;95168.50;;;5.74;84.61
79799;BME280;69283;48.024;11.090;2023-12-14T10:58:19;95178.53;;;5.83;84.73
79799;BME280;69283;48.024;11.090;2023-12-14T11:00:58;95182.00;;;5.83;85.03
79799;BME280;69283;48.024;11.090;2023-12-14T11:03:24;95184.06;;;5.86;86.09
79799;BME280;69283;48.024;11.090;2023-12-14T11:05:49;95182.59;;;5.80;84.89
79799;BME280;69283;48.024;11.090;2023-12-14T11:08:14;95195.75;;;5.82;85.12
79799;BME280;69283;48.024;11.090;2023-12-14T11:10:52;95189.59;;;5.81;85.64
79799;BME280;69283;48.024;11.090;2023-12-14T11:13:17;95192.53;;;5.71;84.20
79799;BME280;69283;48.024;11.090;2023-12-14T11:15:50;95204.72;;;5.77;84.07
79799;BME280;69283;48.024;11.090;2023-12-14T11:18:24;95207.72;;;5.75;83.57
79799;BME280;69283;48.024;11.090;2023-12-14T11:20:58;95196.31;;;5.70;83.77
79799;BME280;69283;48.024;11.090;2023-12-14T11:25:52;95214.03;;;5.71;83.35
79799;BME280;69283;48.024;11.090;2023-12-14T11:28:18;95214.19;;;5.66;83.68
79799;BME280;69283;48.024;11.090;2023-12-14T11:30:43;95220.66;;;5.65;83.65
79799;BME280;69283;48.024;11.090;2023-12-14T11:33:11;95222.25;;;5.66;83.67
79799;BME280;69283;48.024;11.090;2023-12-14T11:35:36;95218.16;;;5.68;84.38
79799;BME280;69283;48.024;11.090;2023-12-14T11:38:02;95226.03;;;5.65;84.45
79799;BME280;69283;48.024;11.090;2023-12-14T11:40:35;95216.38;;;5.64;84.70
79799;BME280;69283;48.024;11.090;2023-12-14T11:43:04;95223.06;;;5.75;83.94
79799;BME280;69283;48.024;11.090;2023-12-14T11:45:38;95220.56;;;5.78;84.06
79799;BME280;69283;48.024;11.090;2023-12-14T11:48:07;95218.19;;;5.77;84.78
79799;BME280;69283;48.024;11.090;2023-12-14T11:50:36;95227.09;;;5.86;84.96
79799;BME280;69283;48.024;11.090;2023-12-14T11:53:02;95232.47;;;5.86;84.42
79799;BME280;69283;48.024;11.090;2023-12-14T11:55:32;95235.53;;;5.93;84.33
79799;BME280;69283;48.024;11.090;2023-12-14T11:57:57;95236.81;;;5.96;85.13
79799;BME280;69283;48.024;11.090;2023-12-14T12:00:24;95231.59;;;5.99;84.36
79799;BME280;69283;48.024;11.090;2023-12-14T12:02:50;95242.41;;;6.08;84.55
79799;BME280;69283;48.024;11.090;2023-12-14T12:05:15;95234.53;;;6.12;84.68
79799;BME280;69283;48.024;11.090;2023-12-14T12:07:44;95230.56;;;6.09;84.05
79799;BME280;69283;48.024;11.090;2023-12-14T12:10:10;95248.63;;;6.17;83.66
79799;BME280;69283;48.024;11.090;2023-12-14T12:12:35;95242.13;;;6.18;83.55
79799;BME280;69283;48.024;11.090;2023-12-14T12:15:01;95241.97;;;6.15;83.31
79799;BME280;69283;48.024;11.090;2023-12-14T12:17:26;95236.75;;;6.18;83.78
79799;BME280;69283;48.024;11.090;2023-12-14T12:19:51;95243.06;;;6.14;83.66
79799;BME280;69283;48.024;11.090;2023-12-14T12:22:17;95248.63;;;6.17;83.42
79799;BME280;69283;48.024;11.090;2023-12-14T12:24:42;95247.19;;;6.20;83.72
79799;BME280;69283;48.024;11.090;2023-12-14T12:27:08;95253.53;;;6.15;84.16
79799;BME280;69283;48.024;11.090;2023-12-14T12:29:34;95245.44;;;6.15;84.30
79799;BME280;69283;48.024;11.090;2023-12-14T12:31:59;95255.16;;;6.25;83.76
79799;BME280;69283;48.024;11.090;2023-12-14T12:34:25;95251.78;;;6.19;83.25
79799;BME280;69283;48.024;11.090;2023-12-14T12:36:50;95259.59;;;6.21;82.53
79799;BME280;69283;48.024;11.090;2023-12-14T12:39:15;95268.94;;;6.23;82.74
79799;BME280;69283;48.024;11.090;2023-12-14T12:41:42;95272.28;;;6.29;83.10
79799;BME280;69283;48.024;11.090;2023-12-14T12:44:07;95275.59;;;6.26;83.20
79799;BME280;69283;48.024;11.090;2023-12-14T12:46:36;95267.81;;;6.24;83.36
79799;BME280;69283;48.024;11.090;2023-12-14T12:49:02;95272.09;;;6.25;83.63
79799;BME280;69283;48.024;11.090;2023-12-14T12:51:28;95273.69;;;6.26;84.50
79799;BME280;69283;48.024;11.090;2023-12-14T12:53:55;95267.38;;;6.31;84.03
79799;BME280;69283;48.024;11.090;2023-12-14T12:56:20;95274.97;;;6.29;83.97